KDHT/DHT METAR and TAF weather

Enter ICAO airport designator
Station Type Date Time Source
KDHT METAR 2021/07/28 02:53 UTC NOAA

KDHT 280253Z AUTO 17007KT 10SM CLR 25/15 A3014 RMK AO2 SLP145 T02500150 53010


Station Type Date Time Source
KDHT Decoded METAR 2021/07/28 02:53 UTC NOAA

DALHART MUNICIPAL AIRPORT, TX, United States (KDHT) 36-01N 102-33W 1217M
Jul 27, 2021 - 10:53 PM EDT / 2021.07.28 0253 UTC
Wind: from the S (170 degrees) at 8 MPH (7 KT):0
Visibility: 10 mile(s):0
Sky conditions: clear
Temperature: 77.0 F (25.0 C)
Dew Point: 59.0 F (15.0 C)
Relative Humidity: 53%
Pressure (altimeter): 30.14 in. Hg (1020 hPa)
Pressure tendency: 0.03 inches (1.0 hPa) higher than three hours ago
ob: KDHT 280253Z AUTO 17007KT 10SM CLR 25/15 A3014 RMK AO2 SLP145 T02500150 53010
cycle: 3

Station Type Date Time Source
KDHT TAF 2021/07/27 18:36 UTC NOAA

TAF KDHT 271734Z 2718/2818 17010KT P6SM SCT070

Example: see airport list